Time;durP1;ratioP1;P1;durP2;ratioP2;P2;SDS_P1;SDS_P2;PMS_P1;PMS_P2;Temp;Humidity;BMP_temperature;BMP_pressure;BME280_temperature;BME280_humidity;BME280_pressure;Samples;Min_cycle;Max_cycle;Signal;HPM_P1;HPM_P2
2022/01/07 00:01:24;;;;;;;;;10.80;10.80;;;;;;;;5235143;28;8770;-69
2022/01/07 00:03:56;;;;;;;;;22.00;22.00;;;;;;;;5239172;28;8826;-70
2022/01/07 00:06:27;;;;;;;;;13.80;13.80;;;;;;;;5235156;28;10612;-70
2022/01/07 00:08:58;;;;;;;;;13.40;13.00;;;;;;;;5251820;28;8790;-70
2022/01/07 00:11:47;;;;;;;;;13.80;13.80;;;;;;;;5254247;28;8782;-69
2022/01/07 00:14:18;;;;;;;;;9.20;9.20;;;;;;;;5234894;28;8793;-68
2022/01/07 00:16:50;;;;;;;;;15.75;15.75;;;;;;;;5269559;28;8783;-70
2022/01/07 00:19:39;;;;;;;;;12.20;12.20;;;;;;;;5237312;28;8892;-70
2022/01/07 00:22:10;;;;;;;;;13.25;13.25;;;;;;;;5226347;28;8896;-70
2022/01/07 00:24:41;;;;;;;;;13.00;13.00;;;;;;;;5235378;28;8921;-70
2022/01/07 00:27:12;;;;;;;;;19.20;16.80;;;;;;;;5251215;28;8782;-70
2022/01/07 00:29:43;;;;;;;;;16.80;16.60;;;;;;;;5251399;28;8810;-68
2022/01/07 00:32:14;;;;;;;;;11.20;11.20;;;;;;;;5269769;28;9445;-68
2022/01/07 00:34:45;;;;;;;;;12.60;12.60;;;;;;;;5251442;28;9496;-69
2022/01/07 00:37:16;;;;;;;;;18.20;18.20;;;;;;;;5230587;28;8789;-68
2022/01/07 00:39:49;;;;;;;;;17.20;17.20;;;;;;;;5248266;28;8767;-68
2022/01/07 00:42:38;;;;;;;;;15.60;15.00;;;;;;;;5247219;28;8781;-69
2022/01/07 00:45:10;;;;;;;;;14.00;14.00;;;;;;;;5251172;28;8786;-69
2022/01/07 00:47:41;;;;;;;;;10.80;10.80;;;;;;;;5251080;28;9238;-70
2022/01/07 00:50:14;;;;;;;;;9.60;9.40;;;;;;;;5234280;28;8801;-69
2022/01/07 00:52:45;;;;;;;;;16.60;16.40;;;;;;;;5235055;28;8782;-69
2022/01/07 00:55:17;;;;;;;;;20.80;19.20;;;;;;;;5250928;28;8774;-70
2022/01/07 00:57:49;;;;;;;;;18.20;13.00;;;;;;;;5250941;28;8774;-70
2022/01/07 01:00:21;;;;;;;;;16.50;15.75;;;;;;;;5213363;28;9527;-70
2022/01/07 01:02:53;;;;;;;;;19.80;19.80;;;;;;;;5237850;28;11547;-70
2022/01/07 01:05:44;;;;;;;;;13.40;13.40;;;;;;;;5267427;28;8794;-68
2022/01/07 01:08:16;;;;;;;;;13.40;13.40;;;;;;;;5250483;28;8810;-67
2022/01/07 01:10:47;;;;;;;;;17.00;17.00;;;;;;;;5249599;28;8821;-67
2022/01/07 01:13:18;;;;;;;;;23.40;22.60;;;;;;;;5251154;28;9429;-69
2022/01/07 01:15:49;;;;;;;;;17.75;15.75;;;;;;;;5231158;28;8765;-68
2022/01/07 01:18:38;;;;;;;;;29.00;25.60;;;;;;;;5268776;28;11427;-68
2022/01/07 01:21:28;;;;;;;;;12.80;12.80;;;;;;;;5268328;28;8782;-68
2022/01/07 01:23:59;;;;;;;;;11.20;11.20;;;;;;;;5249930;28;8782;-67
2022/01/07 01:26:30;;;;;;;;;18.60;18.20;;;;;;;;5250282;28;8806;-68
2022/01/07 01:29:02;;;;;;;;;12.00;11.20;;;;;;;;5267507;28;8840;-70
2022/01/07 01:31:35;;;;;;;;;13.40;13.00;;;;;;;;5267839;28;9506;-70
2022/01/07 01:34:07;;;;;;;;;10.00;9.80;;;;;;;;5266940;28;8797;-70
2022/01/07 01:36:39;;;;;;;;;22.20;20.20;;;;;;;;5233643;28;8778;-70
2022/01/07 01:39:12;;;;;;;;;19.00;19.00;;;;;;;;5250205;28;8816;-70
2022/01/07 01:41:44;;;;;;;;;5.20;5.20;;;;;;;;5249863;28;8800;-68
2022/01/07 01:44:15;;;;;;;;;20.20;18.80;;;;;;;;5266594;28;8803;-69
2022/01/07 01:46:47;;;;;;;;;19.40;19.40;;;;;;;;5246929;28;9448;-72
2022/01/07 01:49:18;;;;;;;;;17.60;17.60;;;;;;;;5245504;28;8878;-68
2022/01/07 01:51:49;;;;;;;;;18.00;16.80;;;;;;;;5230251;28;8783;-71
2022/01/07 01:54:20;;;;;;;;;18.00;16.50;;;;;;;;5249756;28;9492;-71
2022/01/07 01:56:52;;;;;;;;;19.00;19.00;;;;;;;;5249581;28;8784;-71
2022/01/07 01:59:25;;;;;;;;;14.20;14.20;;;;;;;;5245537;28;8817;-71
2022/01/07 02:01:57;;;;;;;;;13.80;13.80;;;;;;;;5249750;28;8787;-71
2022/01/07 02:04:29;;;;;;;;;14.60;13.00;;;;;;;;5262400;28;8819;-70
2022/01/07 02:07:01;;;;;;;;;17.40;16.60;;;;;;;;5254029;28;8899;-70
2022/01/07 02:09:35;;;;;;;;;15.50;15.50;;;;;;;;5270353;28;8970;-69
2022/01/07 02:12:08;;;;;;;;;12.00;12.00;;;;;;;;5236560;28;11401;-70
2022/01/07 02:14:50;;;;;;;;;15.20;14.80;;;;;;;;5253317;28;9004;-70
2022/01/07 02:17:21;;;;;;;;;17.20;17.20;;;;;;;;5253463;28;8764;-70
2022/01/07 02:19:56;;;;;;;;;17.20;17.20;;;;;;;;5270211;28;8798;-70
2022/01/07 02:22:27;;;;;;;;;21.20;21.20;;;;;;;;5253475;28;8780;-71
2022/01/07 02:24:58;;;;;;;;;24.25;22.25;;;;;;;;5269994;28;8780;-71
2022/01/07 02:27:30;;;;;;;;;17.00;17.00;;;;;;;;5253144;28;11428;-72
2022/01/07 02:30:26;;;;;;;;;39.20;37.80;;;;;;;;5273187;28;8992;-70
2022/01/07 02:32:57;;;;;;;;;28.40;22.40;;;;;;;;5270326;28;8788;-71
2022/01/07 02:35:31;;;;;;;;;26.80;24.80;;;;;;;;5253177;28;8778;-71
2022/01/07 02:38:02;;;;;;;;;24.80;24.60;;;;;;;;5270794;28;8845;-70
2022/01/07 02:40:34;;;;;;;;;16.40;16.40;;;;;;;;5253349;28;8776;-70
2022/01/07 02:43:05;;;;;;;;;18.60;18.00;;;;;;;;5270053;28;8792;-71
2022/01/07 02:45:36;;;;;;;;;15.00;15.00;;;;;;;;5253437;28;8811;-73
2022/01/07 02:48:07;;;;;;;;;25.00;25.00;;;;;;;;5253236;28;8769;-73
2022/01/07 02:50:38;;;;;;;;;30.50;27.00;;;;;;;;5270157;28;9564;-72
2022/01/07 02:53:10;;;;;;;;;24.00;19.80;;;;;;;;5253229;28;8785;-74
2022/01/07 02:55:59;;;;;;;;;85.50;62.00;;;;;;;;5269908;28;8788;-72
2022/01/07 02:58:30;;;;;;;;;32.25;28.25;;;;;;;;5269841;28;8772;-71
2022/01/07 03:01:01;;;;;;;;;25.50;24.75;;;;;;;;5288342;28;8771;-70
2022/01/07 03:03:50;;;;;;;;;43.80;42.40;;;;;;;;5256015;28;9511;-72
2022/01/07 03:06:21;;;;;;;;;36.00;35.25;;;;;;;;5253008;28;8807;-72
2022/01/07 03:08:52;;;;;;;;;27.40;26.60;;;;;;;;5269638;28;8792;-71
2022/01/07 03:11:42;;;;;;;;;17.00;15.80;;;;;;;;5272894;28;8784;-74
2022/01/07 03:14:13;;;;;;;;;19.80;19.80;;;;;;;;5269896;28;8799;-73
2022/01/07 03:16:44;;;;;;;;;21.00;19.75;;;;;;;;5269725;28;8919;-72
2022/01/07 03:19:15;;;;;;;;;14.40;14.40;;;;;;;;5270097;28;11559;-72
2022/01/07 03:21:46;;;;;;;;;15.60;15.60;;;;;;;;5270229;28;8808;-72
2022/01/07 03:24:18;;;;;;;;;10.20;9.00;;;;;;;;5252705;28;8789;-72
2022/01/07 03:26:49;;;;;;;;;9.80;9.80;;;;;;;;5269648;28;8776;-72
2022/01/07 03:29:20;;;;;;;;;19.00;17.80;;;;;;;;5252717;28;8800;-72
2022/01/07 03:31:51;;;;;;;;;22.50;15.25;;;;;;;;5287865;28;8853;-72
2022/01/07 03:34:22;;;;;;;;;73.75;57.75;;;;;;;;5272305;28;11494;-72
2022/01/07 03:36:54;;;;;;;;;24.80;23.40;;;;;;;;5273378;28;8769;-70
2022/01/07 03:39:25;;;;;;;;;14.40;13.00;;;;;;;;5256463;28;8898;-72
2022/01/07 03:41:56;;;;;;;;;16.80;14.80;;;;;;;;5273785;28;8787;-70
2022/01/07 03:44:27;;;;;;;;;18.00;18.00;;;;;;;;5273664;28;9541;-71
2022/01/07 03:46:58;;;;;;;;;30.80;28.80;;;;;;;;5256353;28;9471;-71
2022/01/07 03:49:29;;;;;;;;;31.60;31.60;;;;;;;;5273062;28;8796;-72
2022/01/07 03:52:00;;;;;;;;;33.40;31.80;;;;;;;;5273079;28;8804;-72
2022/01/07 03:54:31;;;;;;;;;24.00;22.80;;;;;;;;5273414;28;8811;-72
2022/01/07 03:57:02;;;;;;;;;21.75;21.75;;;;;;;;5257242;28;8784;-73
2022/01/07 03:59:52;;;;;;;;;24.40;22.20;;;;;;;;5276604;28;11048;-73
2022/01/07 04:02:25;;;;;;;;;29.20;26.00;;;;;;;;5272908;28;8800;-72
2022/01/07 04:04:57;;;;;;;;;23.20;23.20;;;;;;;;5272911;28;8861;-73
2022/01/07 04:07:31;;;;;;;;;29.20;28.60;;;;;;;;5255973;28;8752;-71
2022/01/07 04:10:03;;;;;;;;;31.40;31.00;;;;;;;;5272757;28;8836;-71
2022/01/07 04:12:35;;;;;;;;;38.60;33.60;;;;;;;;5272542;28;8776;-71
2022/01/07 04:17:40;;;;;;;;;29.00;28.80;;;;;;;;5272254;28;8899;-71
2022/01/07 04:20:13;;;;;;;;;28.00;28.00;;;;;;;;5255603;28;8780;-71
2022/01/07 04:22:45;;;;;;;;;27.60;26.80;;;;;;;;5255557;28;8769;-70
2022/01/07 04:25:17;;;;;;;;;29.60;28.40;;;;;;;;5255857;28;8830;-71
2022/01/07 04:27:50;;;;;;;;;45.80;42.40;;;;;;;;5290371;28;8769;-71
2022/01/07 04:30:23;;;;;;;;;63.80;54.00;;;;;;;;5255402;28;8958;-71
2022/01/07 04:32:54;;;;;;;;;44.00;40.60;;;;;;;;5255515;28;8765;-71
2022/01/07 04:35:26;;;;;;;;;49.60;42.80;;;;;;;;5272183;28;8777;-70
2022/01/07 04:38:16;;;;;;;;;35.60;35.20;;;;;;;;5257797;28;8902;-71
2022/01/07 04:40:47;;;;;;;;;35.20;34.80;;;;;;;;5272134;28;9626;-72
2022/01/07 04:43:19;;;;;;;;;37.00;33.00;;;;;;;;5290444;28;8781;-72
2022/01/07 04:45:51;;;;;;;;;32.40;32.20;;;;;;;;5271065;28;8780;-72
2022/01/07 04:48:23;;;;;;;;;33.20;32.20;;;;;;;;5238796;28;8869;-72
2022/01/07 04:50:55;;;;;;;;;9.20;8.20;;;;;;;;5271955;28;9518;-72
2022/01/07 04:53:26;;;;;;;;;31.80;29.20;;;;;;;;5272045;28;8772;-70
2022/01/07 04:55:59;;;;;;;;;40.00;38.40;;;;;;;;5271668;28;8963;-70
2022/01/07 04:58:48;;;;;;;;;35.60;35.20;;;;;;;;5271679;28;8772;-72
2022/01/07 05:01:19;;;;;;;;;38.20;38.20;;;;;;;;5271430;28;8776;-72
2022/01/07 05:03:51;;;;;;;;;28.80;28.80;;;;;;;;5254561;28;8803;-72
2022/01/07 05:09:00;;;;;;;;;25.80;25.40;;;;;;;;5290376;28;8769;-72
2022/01/07 05:11:51;;;;;;;;;36.80;36.80;;;;;;;;5290292;28;9475;-72
2022/01/07 05:14:23;;;;;;;;;56.60;44.60;;;;;;;;5271473;28;9497;-73
2022/01/07 05:16:54;;;;;;;;;27.40;26.40;;;;;;;;5270858;28;8799;-69
2022/01/07 05:19:25;;;;;;;;;30.00;28.00;;;;;;;;5255050;28;8788;-70
2022/01/07 05:21:56;;;;;;;;;27.00;25.80;;;;;;;;5271209;28;8760;-71
2022/01/07 05:24:28;;;;;;;;;23.40;23.40;;;;;;;;5254579;28;9626;-73
2022/01/07 05:26:59;;;;;;;;;29.80;27.80;;;;;;;;5289222;28;8773;-69
2022/01/07 05:29:34;;;;;;;;;26.20;26.20;;;;;;;;5271134;28;8966;-66
2022/01/07 05:32:07;;;;;;;;;22.20;21.60;;;;;;;;5271122;28;8784;-72
2022/01/07 05:34:38;;;;;;;;;27.00;24.00;;;;;;;;5254093;28;8776;-72
2022/01/07 05:37:27;;;;;;;;;22.60;22.20;;;;;;;;5257044;28;8780;-72
2022/01/07 05:39:59;;;;;;;;;29.40;26.40;;;;;;;;5289474;28;8803;-71
2022/01/07 05:46:54;;;;;;;;;38.20;36.40;;;;;;;;5288883;28;8717;-70
2022/01/07 05:49:26;;;;;;;;;39.20;36.60;;;;;;;;5270213;28;8812;-71
2022/01/07 05:51:57;;;;;;;;;52.60;45.60;;;;;;;;5288940;28;8792;-70
2022/01/07 05:54:28;;;;;;;;;45.00;40.00;;;;;;;;5270662;28;9547;-75
2022/01/07 05:56:59;;;;;;;;;45.00;42.20;;;;;;;;5288486;28;8907;-73
2022/01/07 05:59:30;;;;;;;;;19.20;15.60;;;;;;;;5270385;28;8781;-71
2022/01/07 06:02:02;;;;;;;;;29.80;28.80;;;;;;;;5254339;28;8794;-73
2022/01/07 06:04:33;;;;;;;;;33.80;31.00;;;;;;;;5270297;28;8831;-71
2022/01/07 06:07:04;;;;;;;;;30.40;30.00;;;;;;;;5270506;28;8807;-72
2022/01/07 06:09:35;;;;;;;;;24.00;22.20;;;;;;;;5254191;28;8815;-72
2022/01/07 06:12:06;;;;;;;;;27.20;25.80;;;;;;;;5253129;28;8769;-72
2022/01/07 06:14:37;;;;;;;;;34.00;32.20;;;;;;;;5270876;28;8907;-71
2022/01/07 06:17:34;;;;;;;;;34.40;33.00;;;;;;;;5252818;28;8773;-71
2022/01/07 06:20:06;;;;;;;;;32.60;31.00;;;;;;;;5253568;28;8765;-72
2022/01/07 06:27:10;;;;;;;;;39.20;37.60;;;;;;;;5288183;28;8868;-70
2022/01/07 06:29:41;;;;;;;;;31.80;30.60;;;;;;;;5270227;28;9506;-71
2022/01/07 06:32:12;;;;;;;;;26.40;25.40;;;;;;;;5269999;28;8820;-70
2022/01/07 06:34:43;;;;;;;;;15.40;15.20;;;;;;;;5288191;28;8857;-71
2022/01/07 06:37:14;;;;;;;;;32.00;31.00;;;;;;;;5269884;28;8784;-70
2022/01/07 06:39:45;;;;;;;;;48.40;37.80;;;;;;;;5253217;28;8845;-72
2022/01/07 06:42:16;;;;;;;;;43.80;31.80;;;;;;;;5270684;28;8899;-73
2022/01/07 06:44:47;;;;;;;;;36.50;31.00;;;;;;;;5287913;28;9449;-70
2022/01/07 06:47:18;;;;;;;;;30.40;30.40;;;;;;;;5269893;28;8894;-72
2022/01/07 06:49:49;;;;;;;;;28.00;26.50;;;;;;;;5252948;28;8973;-72
2022/01/07 06:52:20;;;;;;;;;33.50;30.50;;;;;;;;5270218;28;8795;-72
2022/01/07 06:54:51;;;;;;;;;26.00;25.75;;;;;;;;5269564;28;11564;-69
2022/01/07 06:57:22;;;;;;;;;34.80;34.00;;;;;;;;5269400;28;9436;-74
2022/01/07 06:59:55;;;;;;;;;29.60;25.80;;;;;;;;5287915;28;9486;-74
2022/01/07 07:02:26;;;;;;;;;35.60;30.40;;;;;;;;5269590;28;8773;-72
2022/01/07 07:04:57;;;;;;;;;30.00;27.40;;;;;;;;5269672;28;8839;-72
2022/01/07 07:07:28;;;;;;;;;27.20;27.00;;;;;;;;5269924;28;8906;-72
2022/01/07 07:09:58;;;;;;;;;26.00;26.00;;;;;;;;5272895;28;9542;-72
2022/01/07 07:12:29;;;;;;;;;27.60;26.60;;;;;;;;5273495;28;9474;-72
2022/01/07 07:15:01;;;;;;;;;45.60;42.40;;;;;;;;5240167;28;9479;-72
2022/01/07 07:17:32;;;;;;;;;33.20;29.20;;;;;;;;5274019;28;8760;-73
2022/01/07 07:20:03;;;;;;;;;30.60;30.40;;;;;;;;5273824;28;8808;-72
2022/01/07 07:22:35;;;;;;;;;20.40;20.40;;;;;;;;5273852;28;8795;-72
2022/01/07 07:25:06;;;;;;;;;35.80;35.60;;;;;;;;5256683;28;8772;-72
2022/01/07 07:27:37;;;;;;;;;42.40;40.00;;;;;;;;5255983;28;8789;-73
2022/01/07 07:30:10;;;;;;;;;40.00;37.80;;;;;;;;5273089;28;8791;-72
2022/01/07 07:32:42;;;;;;;;;42.80;40.00;;;;;;;;5240196;28;8795;-72
2022/01/07 07:38:06;;;;;;;;;33.20;30.00;;;;;;;;5273078;28;8757;-70
2022/01/07 07:40:37;;;;;;;;;46.80;36.20;;;;;;;;5239688;28;8783;-72
2022/01/07 07:43:09;;;;;;;;;28.20;26.00;;;;;;;;5256378;28;8749;-72
2022/01/07 07:45:41;;;;;;;;;33.80;30.40;;;;;;;;5256770;28;8797;-73
2022/01/07 07:48:34;;;;;;;;;35.20;32.20;;;;;;;;5275949;28;8795;-72
2022/01/07 07:51:05;;;;;;;;;35.40;32.20;;;;;;;;5272917;28;8862;-72
2022/01/07 07:53:55;;;;;;;;;30.00;30.00;;;;;;;;5275837;28;8773;-71
2022/01/07 07:56:27;;;;;;;;;38.60;38.60;;;;;;;;5290996;28;8789;-72
2022/01/07 07:58:58;;;;;;;;;36.80;31.60;;;;;;;;5239251;28;9460;-73
2022/01/07 08:01:29;;;;;;;;;30.00;30.00;;;;;;;;5255747;28;8787;-72
2022/01/07 08:04:00;;;;;;;;;38.25;36.50;;;;;;;;5272741;28;8816;-72
2022/01/07 08:06:31;;;;;;;;;51.25;43.00;;;;;;;;5291592;28;8784;-72
2022/01/07 08:09:03;;;;;;;;;45.25;42.75;;;;;;;;5290682;28;11485;-71
2022/01/07 08:11:48;;;;;;;;;41.00;37.20;;;;;;;;5290952;28;8886;-72
2022/01/07 08:17:09;;;;;;;;;63.80;51.80;;;;;;;;5273248;28;8768;-70
2022/01/07 08:19:40;;;;;;;;;35.40;34.80;;;;;;;;5256142;28;8792;-73
2022/01/07 08:22:11;;;;;;;;;38.25;38.00;;;;;;;;5239080;28;8815;-71
2022/01/07 08:25:01;;;;;;;;;36.80;34.80;;;;;;;;5291110;28;8791;-71
2022/01/07 08:27:33;;;;;;;;;34.60;33.00;;;;;;;;5255556;28;8796;-72
2022/01/07 08:30:13;;;;;;;;;34.00;31.00;;;;;;;;5272108;28;9504;-72
2022/01/07 08:35:37;;;;;;;;;37.20;33.80;;;;;;;;5290660;28;8777;-70
2022/01/07 08:38:07;;;;;;;;;39.00;36.00;;;;;;;;5255588;28;8773;-71
2022/01/07 08:40:38;;;;;;;;;41.50;41.50;;;;;;;;5272591;28;8780;-72
2022/01/07 08:43:28;;;;;;;;;28.40;28.20;;;;;;;;5272524;28;11442;-68
2022/01/07 08:46:00;;;;;;;;;28.00;27.20;;;;;;;;5272106;28;8781;-69
2022/01/07 08:48:31;;;;;;;;;33.80;30.40;;;;;;;;5238465;28;8780;-69
2022/01/07 08:51:02;;;;;;;;;33.00;33.00;;;;;;;;5272038;28;8804;-71
2022/01/07 08:53:33;;;;;;;;;29.20;26.40;;;;;;;;5255424;28;8800;-70
2022/01/07 08:56:05;;;;;;;;;36.80;35.60;;;;;;;;5288491;28;8803;-71
2022/01/07 08:58:36;;;;;;;;;36.60;34.60;;;;;;;;5271923;28;8963;-73
2022/01/07 09:01:07;;;;;;;;;41.00;39.80;;;;;;;;5271645;28;9498;-70
2022/01/07 09:03:38;;;;;;;;;43.25;39.50;;;;;;;;5254755;28;8831;-72
2022/01/07 09:06:08;;;;;;;;;66.00;52.00;;;;;;;;5271262;28;8783;-71
2022/01/07 09:08:39;;;;;;;;;51.25;46.25;;;;;;;;5255210;28;8830;-71
2022/01/07 09:11:28;;;;;;;;;24.80;19.00;;;;;;;;5271759;28;8792;-71
2022/01/07 09:13:59;;;;;;;;;37.50;33.75;;;;;;;;5271851;28;8816;-70
2022/01/07 09:16:30;;;;;;;;;24.75;24.25;;;;;;;;5271292;28;8811;-70
2022/01/07 09:19:02;;;;;;;;;28.50;27.50;;;;;;;;5238197;28;8846;-70
2022/01/07 09:21:33;;;;;;;;;38.60;34.40;;;;;;;;5271159;28;8876;-70
2022/01/07 09:24:22;;;;;;;;;27.40;27.40;;;;;;;;5271719;28;8773;-70
2022/01/07 09:26:54;;;;;;;;;23.60;20.80;;;;;;;;5271885;28;8854;-71
2022/01/07 09:29:26;;;;;;;;;72.80;58.80;;;;;;;;5254112;28;8808;-70
2022/01/07 09:31:57;;;;;;;;;40.00;34.20;;;;;;;;5271034;28;8760;-70
2022/01/07 09:34:28;;;;;;;;;30.00;30.00;;;;;;;;5270979;28;8761;-70
2022/01/07 09:36:59;;;;;;;;;27.25;24.50;;;;;;;;5288999;28;8808;-71
2022/01/07 09:39:31;;;;;;;;;32.00;31.00;;;;;;;;5271906;28;8761;-72
2022/01/07 09:42:03;;;;;;;;;28.80;27.20;;;;;;;;5254002;28;8777;-69
2022/01/07 09:44:40;;;;;;;;;27.60;27.00;;;;;;;;5237270;28;8797;-70
2022/01/07 09:47:12;;;;;;;;;31.80;30.80;;;;;;;;5237817;28;8865;-74
2022/01/07 09:49:43;;;;;;;;;39.00;39.00;;;;;;;;5237283;28;8811;-69
2022/01/07 09:52:37;;;;;;;;;33.80;31.00;;;;;;;;5273437;28;8797;-73
2022/01/07 09:55:08;;;;;;;;;34.80;34.80;;;;;;;;5254877;28;8780;-70
2022/01/07 09:57:39;;;;;;;;;20.20;16.00;;;;;;;;5270394;28;8923;-71
2022/01/07 10:00:11;;;;;;;;;35.00;34.25;;;;;;;;5270699;28;8797;-71
2022/01/07 10:02:59;;;;;;;;;49.20;44.80;;;;;;;;5255274;28;8780;-71
2022/01/07 10:05:30;;;;;;;;;44.40;39.00;;;;;;;;5270976;28;8812;-71
2022/01/07 10:08:17;;;;;;;;;45.00;38.20;;;;;;;;5271100;28;8811;-71
2022/01/07 10:11:09;;;;;;;;;48.20;45.40;;;;;;;;5270329;28;8820;-71
2022/01/07 10:13:40;;;;;;;;;31.40;30.00;;;;;;;;5288866;28;8788;-71
2022/01/07 10:16:12;;;;;;;;;32.60;28.20;;;;;;;;5253421;28;8784;-71
2022/01/07 10:18:44;;;;;;;;;24.60;24.40;;;;;;;;5287290;28;9507;-70
2022/01/07 10:21:16;;;;;;;;;32.40;30.20;;;;;;;;5253591;28;8781;-70
2022/01/07 10:23:47;;;;;;;;;27.80;27.80;;;;;;;;5287119;28;8791;-70
2022/01/07 10:26:36;;;;;;;;;26.60;25.40;;;;;;;;5273421;28;8745;-71
2022/01/07 10:29:26;;;;;;;;;29.00;28.50;;;;;;;;5236733;28;8780;-72
2022/01/07 10:32:17;;;;;;;;;31.80;31.80;;;;;;;;5288332;28;8780;-69
2022/01/07 10:35:20;;;;;;;;;21.60;20.60;;;;;;;;5289262;28;8791;-71
2022/01/07 10:37:52;;;;;;;;;30.80;30.80;;;;;;;;5247244;28;8822;-70
2022/01/07 10:40:23;;;;;;;;;31.00;31.00;;;;;;;;5253264;28;8812;-72
2022/01/07 10:43:07;;;;;;;;;35.50;35.50;;;;;;;;5237565;28;8769;-70
2022/01/07 10:45:40;;;;;;;;;31.40;30.60;;;;;;;;5275006;28;8873;-71
2022/01/07 10:48:12;;;;;;;;;32.40;32.40;;;;;;;;5257808;28;8769;-71
2022/01/07 10:50:52;;;;;;;;;31.40;30.20;;;;;;;;5274367;28;8916;-71
2022/01/07 10:53:27;;;;;;;;;37.00;34.60;;;;;;;;5291071;28;8812;-71
2022/01/07 10:56:03;;;;;;;;;35.20;34.20;;;;;;;;5274649;28;8945;-70
2022/01/07 10:58:48;;;;;;;;;29.40;28.60;;;;;;;;5257466;28;8784;-71
2022/01/07 11:01:19;;;;;;;;;34.20;32.40;;;;;;;;5274512;28;8806;-71
2022/01/07 11:03:51;;;;;;;;;51.50;47.75;;;;;;;;5292270;28;9633;-69
2022/01/07 11:06:24;;;;;;;;;32.40;32.40;;;;;;;;5292853;28;8772;-71
2022/01/07 11:08:55;;;;;;;;;31.00;30.60;;;;;;;;5291071;28;8780;-71
2022/01/07 11:11:27;;;;;;;;;33.60;32.60;;;;;;;;5257323;28;8837;-70
2022/01/07 11:14:04;;;;;;;;;31.20;29.00;;;;;;;;5274716;28;8806;-70
2022/01/07 11:16:35;;;;;;;;;43.00;39.20;;;;;;;;5256903;28;8760;-70
2022/01/07 11:19:08;;;;;;;;;39.40;35.40;;;;;;;;5274024;28;8792;-70
2022/01/07 11:21:39;;;;;;;;;44.00;40.80;;;;;;;;5257438;28;8849;-69
2022/01/07 11:24:28;;;;;;;;;46.60;44.60;;;;;;;;5273736;28;8764;-70
2022/01/07 11:27:00;;;;;;;;;42.40;35.60;;;;;;;;5274707;28;8761;-70
2022/01/07 11:29:34;;;;;;;;;56.80;46.80;;;;;;;;5239961;28;9488;-69
2022/01/07 11:32:23;;;;;;;;;42.60;40.80;;;;;;;;5273852;28;8765;-70
2022/01/07 11:34:55;;;;;;;;;45.60;43.40;;;;;;;;5273526;28;8761;-70
2022/01/07 11:37:33;;;;;;;;;47.80;44.80;;;;;;;;5273114;28;8796;-71
2022/01/07 11:40:07;;;;;;;;;53.20;48.60;;;;;;;;5273555;28;8788;-70
2022/01/07 11:42:45;;;;;;;;;34.40;33.60;;;;;;;;5291324;28;8864;-70
2022/01/07 11:45:34;;;;;;;;;51.20;43.80;;;;;;;;5273442;28;8798;-70
2022/01/07 11:48:27;;;;;;;;;43.20;38.40;;;;;;;;5256550;28;9059;-70
2022/01/07 11:50:59;;;;;;;;;55.60;49.80;;;;;;;;5291093;27;9447;-70
2022/01/07 11:53:36;;;;;;;;;72.60;57.20;;;;;;;;5312169;27;8766;-70
2022/01/07 11:56:08;;;;;;;;;55.60;48.40;;;;;;;;5260407;27;8780;-70
2022/01/07 11:58:40;;;;;;;;;46.20;44.40;;;;;;;;5277045;27;8793;-71
2022/01/07 12:01:29;;;;;;;;;63.40;52.20;;;;;;;;5297143;27;8805;-70
2022/01/07 12:04:22;;;;;;;;;12.75;12.75;;;;;;;;5260418;27;8798;-70
2022/01/07 12:06:55;;;;;;;;;58.00;50.40;;;;;;;;5294375;27;8804;-70
2022/01/07 12:09:44;;;;;;;;;29.40;29.40;;;;;;;;5312155;27;8817;-71
2022/01/07 12:12:16;;;;;;;;;50.75;45.00;;;;;;;;5312570;27;8888;-70
2022/01/07 12:14:51;;;;;;;;;31.40;20.80;;;;;;;;5276769;27;8920;-70
2022/01/07 12:17:24;;;;;;;;;44.60;41.20;;;;;;;;5293901;27;8794;-70
2022/01/07 12:20:04;;;;;;;;;36.40;34.60;;;;;;;;5276683;27;8901;-70
2022/01/07 12:22:35;;;;;;;;;34.00;29.20;;;;;;;;5276661;27;8758;-70
2022/01/07 12:25:06;;;;;;;;;55.00;50.00;;;;;;;;5293825;27;8811;-70
2022/01/07 12:27:36;;;;;;;;;46.20;45.00;;;;;;;;5276712;27;8766;-74
2022/01/07 12:30:10;;;;;;;;;59.25;50.00;;;;;;;;5276053;27;8818;-66
2022/01/07 12:32:41;;;;;;;;;58.80;50.20;;;;;;;;5276519;27;9350;-68
2022/01/07 12:39:48;;;;;;;;;82.25;66.25;;;;;;;;5312445;27;8776;-70
2022/01/07 12:42:19;;;;;;;;;83.00;62.00;;;;;;;;5277785;27;8869;-72
2022/01/07 12:44:52;;;;;;;;;73.40;59.00;;;;;;;;5260331;27;8801;-72
2022/01/07 12:47:25;;;;;;;;;76.20;58.40;;;;;;;;5276537;27;8813;-67
2022/01/07 12:49:57;;;;;;;;;47.60;46.40;;;;;;;;5293419;27;8816;-67
2022/01/07 12:52:29;;;;;;;;;48.80;47.00;;;;;;;;5276668;27;8778;-70
2022/01/07 12:55:00;;;;;;;;;52.60;46.00;;;;;;;;5293145;27;9518;-69
2022/01/07 12:57:32;;;;;;;;;97.50;74.75;;;;;;;;5276632;27;8766;-71
2022/01/07 13:00:13;;;;;;;;;48.80;45.60;;;;;;;;5293060;27;8797;-69
2022/01/07 13:02:48;;;;;;;;;44.40;43.00;;;;;;;;5293409;27;8779;-70
2022/01/07 13:05:21;;;;;;;;;36.60;33.20;;;;;;;;5293573;27;8786;-69
2022/01/07 13:07:59;;;;;;;;;40.20;38.00;;;;;;;;5311592;27;8785;-68
2022/01/07 13:10:32;;;;;;;;;50.60;45.80;;;;;;;;5293587;27;8813;-71
2022/01/07 13:13:10;;;;;;;;;31.40;29.00;;;;;;;;5295083;27;8822;-66
2022/01/07 13:15:43;;;;;;;;;38.20;38.20;;;;;;;;5293850;27;8834;-67
2022/01/07 13:18:13;;;;;;;;;39.00;37.60;;;;;;;;5312297;27;8809;-69
2022/01/07 13:20:45;;;;;;;;;28.50;27.75;;;;;;;;5312186;27;8778;-66
2022/01/07 13:23:16;;;;;;;;;33.60;32.20;;;;;;;;5259001;27;8770;-66
2022/01/07 13:26:06;;;;;;;;;37.20;34.00;;;;;;;;5295566;27;8770;-69
2022/01/07 13:28:37;;;;;;;;;56.60;50.80;;;;;;;;5292603;27;8778;-68
2022/01/07 13:31:33;;;;;;;;;43.00;38.80;;;;;;;;5292467;27;8825;-70
2022/01/07 13:34:04;;;;;;;;;58.60;48.60;;;;;;;;5275915;27;8793;-69
2022/01/07 13:36:37;;;;;;;;;66.75;56.75;;;;;;;;5311423;27;8751;-69
2022/01/07 13:39:26;;;;;;;;;63.20;54.00;;;;;;;;5278864;27;8806;-69
2022/01/07 13:41:57;;;;;;;;;76.00;60.75;;;;;;;;5276403;27;8775;-69
2022/01/07 13:44:28;;;;;;;;;73.50;57.50;;;;;;;;5293297;27;8799;-69
2022/01/07 13:47:19;;;;;;;;;83.80;63.40;;;;;;;;5311733;27;8758;-68
2022/01/07 13:49:51;;;;;;;;;82.60;67.60;;;;;;;;5310424;27;8904;-70
2022/01/07 13:52:26;;;;;;;;;82.80;61.80;;;;;;;;5275226;27;8758;-68
2022/01/07 13:55:29;;;;;;;;;69.20;58.20;;;;;;;;5292288;27;8847;-68
2022/01/07 13:58:10;;;;;;;;;58.80;46.80;;;;;;;;5291850;27;8770;-70
2022/01/07 14:01:06;;;;;;;;;65.80;57.00;;;;;;;;5291849;27;8763;-70
2022/01/07 14:03:55;;;;;;;;;68.60;54.60;;;;;;;;5279876;27;8928;-70
2022/01/07 14:06:46;;;;;;;;;78.40;63.40;;;;;;;;5292209;27;8888;-70
2022/01/07 14:09:18;;;;;;;;;70.80;58.60;;;;;;;;5292058;27;8774;-71
2022/01/07 14:12:02;;;;;;;;;84.80;67.60;;;;;;;;5274515;27;8786;-70
2022/01/07 14:14:38;;;;;;;;;74.00;56.80;;;;;;;;5291691;27;8758;-70
2022/01/07 14:17:10;;;;;;;;;77.40;63.40;;;;;;;;5310527;27;8770;-69
2022/01/07 14:19:59;;;;;;;;;91.60;70.60;;;;;;;;5274424;27;8774;-71
2022/01/07 14:22:30;;;;;;;;;59.80;51.20;;;;;;;;5292030;27;8782;-71
2022/01/07 14:25:01;;;;;;;;;58.20;50.20;;;;;;;;5310365;27;8766;-70
2022/01/07 14:27:34;;;;;;;;;73.60;59.40;;;;;;;;5291514;27;8790;-71
2022/01/07 14:30:24;;;;;;;;;59.00;48.80;;;;;;;;5310283;27;8813;-71
2022/01/07 14:32:55;;;;;;;;;68.25;54.75;;;;;;;;5274642;27;8758;-71
2022/01/07 14:35:25;;;;;;;;;68.00;57.75;;;;;;;;5274022;27;8767;-70
2022/01/07 14:37:56;;;;;;;;;78.25;61.75;;;;;;;;5274058;27;9437;-71
2022/01/07 14:40:27;;;;;;;;;60.50;53.00;;;;;;;;5274724;27;8778;-70
2022/01/07 14:42:58;;;;;;;;;59.00;51.25;;;;;;;;5291393;27;8774;-69
2022/01/07 14:45:29;;;;;;;;;55.00;46.75;;;;;;;;5291299;27;8802;-70
2022/01/07 14:48:00;;;;;;;;;52.50;47.00;;;;;;;;5291773;27;9324;-69
2022/01/07 14:50:31;;;;;;;;;43.75;41.00;;;;;;;;5291545;27;8798;-71
2022/01/07 14:53:02;;;;;;;;;53.40;44.40;;;;;;;;5309077;27;8790;-69
2022/01/07 14:55:36;;;;;;;;;41.00;38.50;;;;;;;;5290952;27;8778;-70
2022/01/07 14:58:08;;;;;;;;;43.80;43.20;;;;;;;;5274016;27;10455;-70
2022/01/07 15:00:40;;;;;;;;;55.00;48.20;;;;;;;;5257823;27;8771;-72
2022/01/07 15:03:11;;;;;;;;;47.80;42.20;;;;;;;;5257421;27;8766;-73
2022/01/07 15:05:42;;;;;;;;;54.25;47.50;;;;;;;;5291039;27;8820;-71
2022/01/07 15:08:13;;;;;;;;;47.50;43.75;;;;;;;;5290922;27;8782;-69
2022/01/07 15:10:44;;;;;;;;;87.75;65.75;;;;;;;;5290513;27;11609;-71
2022/01/07 15:13:15;;;;;;;;;38.00;37.00;;;;;;;;5290829;27;9523;-71
2022/01/07 15:20:09;;;;;;;;;27.20;26.20;;;;;;;;5309271;27;8726;-68
2022/01/07 15:22:40;;;;;;;;;33.25;31.50;;;;;;;;5291131;27;8758;-69
2022/01/07 15:29:34;;;;;;;;;45.40;42.40;;;;;;;;5310230;27;8805;-66
2022/01/07 15:32:49;;;;;;;;;34.80;33.20;;;;;;;;5287318;27;8776;-67
2022/01/07 15:35:19;;;;;;;;;38.80;36.60;;;;;;;;5295161;27;8782;-69
2022/01/07 15:42:13;;;;;;;;;40.00;37.80;;;;;;;;5313018;27;8744;-70
2022/01/07 15:44:44;;;;;;;;;33.25;32.50;;;;;;;;5313064;27;8814;-70
2022/01/07 15:47:15;;;;;;;;;45.75;43.75;;;;;;;;5313330;27;8762;-70
2022/01/07 15:49:45;;;;;;;;;48.75;47.50;;;;;;;;5294395;27;8801;-71
2022/01/07 15:52:17;;;;;;;;;68.25;57.50;;;;;;;;5312696;27;8784;-71
2022/01/07 15:54:47;;;;;;;;;45.20;38.80;;;;;;;;5313593;27;9480;-71